Time;durP1;ratioP1;P1;durP2;ratioP2;P2;SDS_P1;SDS_P2;PMS_P1;PMS_P2;Temp;Humidity;BMP_temperature;BMP_pressure;BME280_temperature;BME280_humidity;BME280_pressure;Samples;Min_cycle;Max_cycle;Signal;HPM_P1;HPM_P2
2021/09/01 00:00:13;;;;;;;3.70;2.70;;;15.10;99.90;;;;;;4423615;32;20122;-68
2021/09/01 00:02:41;;;;;;;3.83;3.07;;;15.10;99.90;;;;;;4425770;32;20139;-68
2021/09/01 00:05:09;;;;;;;5.73;2.90;;;15.10;99.90;;;;;;4425765;32;20182;-68
2021/09/01 00:07:37;;;;;;;4.00;3.00;;;15.10;99.90;;;;;;4425658;32;20419;-68
2021/09/01 00:10:05;;;;;;;4.17;2.77;;;15.00;99.90;;;;;;4423598;32;20154;-68
2021/09/01 00:12:33;;;;;;;4.47;3.00;;;15.00;99.90;;;;;;4425324;32;20449;-68
2021/09/01 00:15:00;;;;;;;4.17;3.23;;;15.00;99.90;;;;;;4425614;32;20124;-68
2021/09/01 00:17:27;;;;;;;4.23;3.70;;;15.00;99.90;;;;;;4424076;32;20155;-68
2021/09/01 00:19:54;;;;;;;4.60;3.70;;;15.00;99.90;;;;;;4423955;32;20134;-68
2021/09/01 00:22:21;;;;;;;4.37;3.70;;;14.90;99.90;;;;;;4424600;32;20191;-68
2021/09/01 00:24:48;;;;;;;4.70;3.60;;;14.90;99.90;;;;;;4424123;32;20231;-68
2021/09/01 00:27:14;;;;;;;5.47;3.30;;;15.00;99.90;;;;;;4423943;32;20176;-68
2021/09/01 00:29:41;;;;;;;5.17;3.00;;;14.90;99.90;;;;;;4425354;32;20397;-68
2021/09/01 00:32:08;;;;;;;5.83;2.80;;;14.90;99.90;;;;;;4425195;32;20215;-68
2021/09/01 00:34:35;;;;;;;6.20;2.80;;;14.90;99.90;;;;;;4425402;32;20176;-68
2021/09/01 00:37:02;;;;;;;3.43;2.60;;;14.90;99.90;;;;;;4429346;32;20226;-67
2021/09/01 00:39:29;;;;;;;3.80;2.63;;;14.90;99.90;;;;;;4439230;32;20203;-67
2021/09/01 00:41:58;;;;;;;5.17;2.83;;;14.90;99.90;;;;;;4440845;32;20428;-67
2021/09/01 00:44:27;;;;;;;3.67;2.83;;;14.90;99.90;;;;;;4438611;32;20191;-67
2021/09/01 00:46:55;;;;;;;3.77;2.87;;;14.90;99.90;;;;;;4438515;32;20178;-67
2021/09/01 00:49:29;;;;;;;4.40;3.40;;;14.80;99.90;;;;;;4440505;32;20146;-66
2021/09/01 00:51:57;;;;;;;5.13;3.33;;;14.80;99.90;;;;;;4438777;32;20197;-67
2021/09/01 00:54:26;;;;;;;4.07;3.20;;;14.80;99.90;;;;;;4440807;32;20127;-67
2021/09/01 00:57:00;;;;;;;5.47;3.50;;;14.80;99.90;;;;;;4440577;32;20123;-67
2021/09/01 00:59:30;;;;;;;4.50;3.13;;;14.80;99.90;;;;;;4435468;32;20418;-68
2021/09/01 01:01:58;;;;;;;4.87;3.40;;;14.80;99.90;;;;;;4430207;32;20377;-67
2021/09/01 01:04:32;;;;;;;4.60;3.23;;;14.80;99.90;;;;;;4423700;32;20161;-67
2021/09/01 01:07:08;;;;;;;4.47;3.30;;;14.80;99.90;;;;;;4425188;32;20131;-67
2021/09/01 01:09:36;;;;;;;4.73;3.50;;;14.80;99.90;;;;;;4424850;32;20162;-67
2021/09/01 01:12:06;;;;;;;5.03;3.43;;;14.90;99.90;;;;;;4424620;32;20185;-67
2021/09/01 01:14:38;;;;;;;4.60;3.43;;;14.80;99.90;;;;;;4425185;32;20342;-68
2021/09/01 01:17:06;;;;;;;4.43;3.10;;;14.70;99.90;;;;;;4425035;32;20151;-67
2021/09/01 01:19:38;;;;;;;5.37;3.13;;;14.70;99.90;;;;;;4425149;32;20130;-68
2021/09/01 01:22:06;;;;;;;5.63;3.47;;;14.70;99.90;;;;;;4425396;32;20128;-67
2021/09/01 01:24:56;;;;;;;3.87;3.17;;;14.70;99.90;;;;;;4425319;32;20182;-67
2021/09/01 01:27:33;;;;;;;4.23;3.00;;;14.70;99.90;;;;;;4416717;32;20426;-67
2021/09/01 01:30:18;;;;;;;3.37;2.60;;;14.70;99.90;;;;;;4425141;32;20397;-66
2021/09/01 01:32:47;;;;;;;3.23;2.80;;;14.70;99.90;;;;;;4424180;32;20124;-67
2021/09/01 01:35:34;;;;;;;3.60;2.93;;;14.70;99.90;;;;;;4423496;32;20131;-67
2021/09/01 01:38:06;;;;;;;2.83;2.40;;;14.70;99.90;;;;;;4425078;32;20131;-68
2021/09/01 01:40:34;;;;;;;2.40;2.10;;;14.70;99.90;;;;;;4425362;32;20200;-69
2021/09/01 01:43:02;;;;;;;3.00;2.50;;;14.70;99.90;;;;;;4425022;32;20173;-68
2021/09/01 01:45:38;;;;;;;3.43;2.60;;;14.60;99.90;;;;;;4423077;32;20174;-67
2021/09/01 01:48:06;;;;;;;4.50;2.20;;;14.60;99.90;;;;;;4423013;32;20146;-68
2021/09/01 01:50:34;;;;;;;3.93;2.50;;;14.60;99.90;;;;;;4425070;32;20172;-68
2021/09/01 01:53:01;;;;;;;3.03;2.17;;;14.60;99.90;;;;;;4424517;32;20152;-67
2021/09/01 01:55:28;;;;;;;3.00;2.27;;;14.60;99.90;;;;;;4424967;32;20197;-68
2021/09/01 01:57:55;;;;;;;4.33;2.20;;;14.50;99.90;;;;;;4424701;32;20127;-67
2021/09/01 02:00:21;;;;;;;3.43;2.30;;;14.50;99.90;;;;;;4425003;32;20130;-67
2021/09/01 02:02:48;;;;;;;3.67;2.93;;;14.50;99.90;;;;;;4425755;32;20162;-68
2021/09/01 02:05:16;;;;;;;3.20;2.70;;;14.50;99.90;;;;;;4427550;32;20181;-68
2021/09/01 02:07:43;;;;;;;3.00;2.60;;;14.60;99.90;;;;;;4426023;32;20179;-67
2021/09/01 02:10:11;;;;;;;3.60;2.70;;;14.50;99.90;;;;;;4427461;32;20391;-68
2021/09/01 02:12:39;;;;;;;3.90;2.63;;;14.50;99.90;;;;;;4425779;32;20132;-68
2021/09/01 02:15:08;;;;;;;3.43;2.40;;;14.60;99.90;;;;;;4427206;32;20179;-67
2021/09/01 02:17:35;;;;;;;3.30;2.50;;;14.50;99.90;;;;;;4425909;32;20222;-67
2021/09/01 02:20:03;;;;;;;3.03;2.40;;;14.50;99.90;;;;;;4427239;32;20183;-67
2021/09/01 02:22:30;;;;;;;3.57;2.50;;;14.50;99.90;;;;;;4427621;32;20139;-67
2021/09/01 02:24:57;;;;;;;3.77;2.67;;;14.50;99.90;;;;;;4427291;32;20143;-68
2021/09/01 02:27:24;;;;;;;3.50;2.30;;;14.50;99.90;;;;;;4427119;32;20131;-67
2021/09/01 02:29:51;;;;;;;3.33;2.60;;;14.50;99.90;;;;;;4427215;32;20237;-68
2021/09/01 02:32:19;;;;;;;3.20;2.57;;;14.50;99.90;;;;;;4427251;32;20131;-67
2021/09/01 02:34:46;;;;;;;4.93;2.40;;;14.50;99.90;;;;;;4426511;32;20146;-68
2021/09/01 02:37:13;;;;;;;3.40;2.63;;;14.60;99.90;;;;;;4434122;32;20195;-68
2021/09/01 02:39:40;;;;;;;4.40;2.53;;;14.50;99.90;;;;;;4442501;32;20408;-67
2021/09/01 02:42:06;;;;;;;3.97;2.83;;;14.50;99.90;;;;;;4442270;32;20131;-67
2021/09/01 02:44:35;;;;;;;3.03;2.33;;;14.50;99.90;;;;;;4442302;32;20146;-67
2021/09/01 02:47:02;;;;;;;3.40;2.67;;;14.50;99.90;;;;;;4441332;32;20154;-67
2021/09/01 02:49:28;;;;;;;4.17;2.53;;;14.40;99.90;;;;;;4442210;32;20207;-67
2021/09/01 02:51:56;;;;;;;3.30;2.50;;;14.30;99.90;;;;;;4442460;32;20234;-67
2021/09/01 02:54:22;;;;;;;3.23;2.63;;;14.30;99.90;;;;;;4442564;32;20127;-67
2021/09/01 02:56:49;;;;;;;4.80;2.90;;;14.30;99.90;;;;;;4441936;32;20131;-67
2021/09/01 02:59:16;;;;;;;3.73;2.70;;;14.30;99.90;;;;;;4442031;32;20137;-67
2021/09/01 03:01:43;;;;;;;4.63;2.60;;;14.30;99.90;;;;;;4442098;32;20130;-67
2021/09/01 03:04:10;;;;;;;4.00;2.40;;;14.30;99.90;;;;;;4442158;32;20157;-67
2021/09/01 03:06:37;;;;;;;4.33;2.57;;;14.30;99.90;;;;;;4442023;32;20135;-67
2021/09/01 03:09:03;;;;;;;3.97;2.40;;;14.20;99.90;;;;;;4442278;32;20337;-68
2021/09/01 03:11:30;;;;;;;4.37;2.80;;;14.20;99.90;;;;;;4440640;32;20127;-68
2021/09/01 03:13:57;;;;;;;3.57;2.80;;;14.20;99.90;;;;;;4439954;32;20484;-68
2021/09/01 03:16:24;;;;;;;3.30;2.60;;;14.20;99.90;;;;;;4440029;32;20496;-68
2021/09/01 03:18:51;;;;;;;4.53;2.90;;;14.20;99.90;;;;;;4440979;32;20126;-68
2021/09/01 03:21:17;;;;;;;3.83;2.70;;;14.10;99.90;;;;;;4441939;32;20127;-67
2021/09/01 03:23:44;;;;;;;3.67;2.73;;;14.10;99.90;;;;;;4442003;32;20180;-68
2021/09/01 03:26:11;;;;;;;4.13;3.00;;;14.10;99.90;;;;;;4441619;32;20464;-67
2021/09/01 03:28:38;;;;;;;4.87;3.07;;;14.10;99.90;;;;;;4441118;32;20135;-67
2021/09/01 03:31:04;;;;;;;4.37;2.90;;;14.10;99.90;;;;;;4441576;32;20131;-67
2021/09/01 03:33:32;;;;;;;4.30;3.00;;;14.10;99.90;;;;;;4439787;32;20198;-67
2021/09/01 03:35:58;;;;;;;3.77;3.07;;;14.00;99.90;;;;;;4441781;32;20179;-67
2021/09/01 03:38:25;;;;;;;5.60;3.20;;;14.00;99.90;;;;;;4441785;32;20138;-67
2021/09/01 03:40:52;;;;;;;4.60;3.40;;;14.00;99.90;;;;;;4441385;32;20438;-67
2021/09/01 03:43:19;;;;;;;5.67;3.70;;;14.00;99.90;;;;;;4441421;32;20127;-66
2021/09/01 03:45:45;;;;;;;4.97;3.40;;;14.00;99.90;;;;;;4440934;32;20158;-67
2021/09/01 03:48:12;;;;;;;7.17;4.00;;;14.00;99.90;;;;;;4439470;32;20161;-66
2021/09/01 03:50:39;;;;;;;6.87;3.73;;;14.00;99.90;;;;;;4439327;32;20159;-67
2021/09/01 03:53:06;;;;;;;5.20;3.73;;;14.10;99.90;;;;;;4439893;32;20134;-68
2021/09/01 03:55:33;;;;;;;6.53;3.60;;;14.00;99.90;;;;;;4441212;32;20127;-67
2021/09/01 03:57:59;;;;;;;4.87;3.50;;;14.00;99.90;;;;;;4440903;32;20222;-68
2021/09/01 04:00:26;;;;;;;6.47;3.73;;;14.00;99.90;;;;;;4440820;32;20127;-68
2021/09/01 04:02:53;;;;;;;5.23;3.80;;;14.00;99.90;;;;;;4441214;32;20184;-68
2021/09/01 04:05:20;;;;;;;6.83;4.20;;;14.00;99.90;;;;;;4439650;32;20225;-66
2021/09/01 04:07:47;;;;;;;5.43;4.00;;;14.00;99.90;;;;;;4440659;32;20127;-67
2021/09/01 04:10:14;;;;;;;5.97;3.97;;;14.00;99.90;;;;;;4439354;32;20447;-67
2021/09/01 04:12:40;;;;;;;6.40;4.50;;;14.00;99.90;;;;;;4439474;32;20464;-67
2021/09/01 04:15:08;;;;;;;6.40;4.47;;;14.00;99.90;;;;;;4439362;32;20126;-67
2021/09/01 04:17:34;;;;;;;7.53;4.20;;;14.00;99.90;;;;;;4439400;32;20150;-68
2021/09/01 04:20:02;;;;;;;9.80;4.70;;;14.00;99.90;;;;;;4441157;32;20141;-67
2021/09/01 04:22:28;;;;;;;8.00;4.73;;;14.00;99.90;;;;;;4438741;32;20166;-68
2021/09/01 04:24:55;;;;;;;8.17;4.70;;;14.00;99.90;;;;;;4432782;32;20197;-67
2021/09/01 04:27:22;;;;;;;6.83;4.40;;;14.00;99.90;;;;;;4425429;32;20130;-67
2021/09/01 04:29:49;;;;;;;10.53;5.03;;;14.00;99.90;;;;;;4423598;32;20530;-67
2021/09/01 04:32:15;;;;;;;7.00;5.10;;;14.00;99.90;;;;;;4425259;32;20131;-67
2021/09/01 04:34:42;;;;;;;8.47;4.80;;;14.00;99.90;;;;;;4425117;32;20171;-67
2021/09/01 04:37:09;;;;;;;7.50;5.17;;;14.00;99.90;;;;;;4425583;32;20511;-67
2021/09/01 04:39:36;;;;;;;8.47;4.73;;;14.00;99.90;;;;;;4425265;32;20123;-66
2021/09/01 04:42:04;;;;;;;8.60;5.43;;;14.00;99.90;;;;;;4423453;32;20481;-66
2021/09/01 04:44:32;;;;;;;8.93;5.67;;;14.10;99.90;;;;;;4423437;32;20146;-66
2021/09/01 04:46:59;;;;;;;9.40;5.70;;;14.00;99.90;;;;;;4424378;32;20424;-66
2021/09/01 04:49:26;;;;;;;10.03;6.30;;;14.00;99.90;;;;;;4423727;32;20181;-66
2021/09/01 04:51:53;;;;;;;10.37;6.57;;;14.00;99.90;;;;;;4425340;32;20157;-67
2021/09/01 04:54:20;;;;;;;10.23;6.57;;;14.00;99.90;;;;;;4423381;32;20164;-67
2021/09/01 04:56:46;;;;;;;11.70;7.13;;;14.00;99.90;;;;;;4425244;32;20127;-67
2021/09/01 04:59:13;;;;;;;11.77;7.63;;;14.00;99.90;;;;;;4422381;32;20190;-68
2021/09/01 05:01:40;;;;;;;11.87;7.40;;;14.00;99.90;;;;;;4423619;32;20264;-67
2021/09/01 05:04:07;;;;;;;13.67;8.30;;;13.90;99.90;;;;;;4423780;32;20278;-67
2021/09/01 05:06:34;;;;;;;12.73;7.90;;;14.00;99.90;;;;;;4423588;32;20184;-68
2021/09/01 05:09:01;;;;;;;12.40;8.20;;;14.00;99.90;;;;;;4428290;32;20151;-68
2021/09/01 05:11:27;;;;;;;17.93;9.33;;;14.00;99.90;;;;;;4432890;32;20146;-68
2021/09/01 05:13:54;;;;;;;14.03;9.00;;;14.00;99.90;;;;;;4438866;32;20126;-67
2021/09/01 05:16:21;;;;;;;15.27;9.27;;;14.00;99.90;;;;;;4440167;32;20165;-67
2021/09/01 05:18:48;;;;;;;16.60;9.30;;;14.00;99.90;;;;;;4440596;32;20123;-68
2021/09/01 05:21:18;;;;;;;18.40;10.30;;;14.00;99.90;;;;;;4440399;32;20123;-68
2021/09/01 05:23:49;;;;;;;15.27;9.57;;;14.00;99.90;;;;;;4440581;32;20130;-67
2021/09/01 05:26:18;;;;;;;16.13;10.13;;;14.00;99.90;;;;;;4440475;32;20297;-68
2021/09/01 05:28:48;;;;;;;17.07;10.20;;;14.00;99.90;;;;;;4438641;32;20391;-67
2021/09/01 05:31:17;;;;;;;16.83;10.27;;;13.90;99.90;;;;;;4439255;32;20407;-68
2021/09/01 05:33:49;;;;;;;17.60;10.70;;;13.90;99.90;;;;;;4441249;32;20130;-68
2021/09/01 05:36:17;;;;;;;17.67;11.10;;;14.00;99.90;;;;;;4439226;32;20125;-67
2021/09/01 05:38:46;;;;;;;17.57;11.10;;;14.00;99.90;;;;;;4440708;32;20149;-66
2021/09/01 05:41:13;;;;;;;18.83;10.57;;;14.00;99.90;;;;;;4434159;32;20194;-67
2021/09/01 05:43:40;;;;;;;18.03;10.93;;;14.00;99.90;;;;;;4427205;32;20164;-68
2021/09/01 05:46:07;;;;;;;18.97;11.33;;;14.00;99.90;;;;;;4425707;32;20166;-67
2021/09/01 05:48:36;;;;;;;18.90;11.07;;;14.00;99.90;;;;;;4427653;32;20227;-68
2021/09/01 05:51:03;;;;;;;24.07;11.43;;;14.00;99.90;;;;;;4427560;32;20123;-67
2021/09/01 05:53:31;;;;;;;20.73;11.30;;;14.00;99.90;;;;;;4426654;32;20131;-66
2021/09/01 05:56:01;;;;;;;20.23;11.33;;;14.00;99.90;;;;;;4427816;32;20131;-68
2021/09/01 05:58:28;;;;;;;19.13;11.00;;;14.00;99.90;;;;;;4427501;32;20131;-67
2021/09/01 06:01:02;;;;;;;20.10;11.70;;;14.00;99.90;;;;;;4425722;32;20136;-67
2021/09/01 06:03:36;;;;;;;19.03;10.83;;;14.00;99.90;;;;;;4427373;32;20128;-68
2021/09/01 06:06:04;;;;;;;19.47;11.50;;;14.00;99.90;;;;;;4426092;32;20146;-68
2021/09/01 06:08:34;;;;;;;19.93;11.77;;;14.00;99.90;;;;;;4425626;32;20180;-67
2021/09/01 06:11:07;;;;;;;23.17;11.87;;;13.90;99.90;;;;;;4425999;32;20162;-67
2021/09/01 06:13:34;;;;;;;18.73;11.03;;;14.00;99.90;;;;;;4430329;32;20170;-67
2021/09/01 06:16:03;;;;;;;17.67;11.27;;;14.00;99.90;;;;;;4442552;32;20227;-68
2021/09/01 06:18:30;;;;;;;19.03;11.47;;;14.00;99.90;;;;;;4440895;32;20624;-68
2021/09/01 06:20:57;;;;;;;20.40;11.10;;;14.10;99.90;;;;;;4440871;32;20520;-68
2021/09/01 06:23:24;;;;;;;17.43;10.53;;;14.10;99.90;;;;;;4440494;32;20140;-68
2021/09/01 06:25:50;;;;;;;22.10;10.97;;;14.20;99.90;;;;;;4441914;32;20177;-67
2021/09/01 06:28:17;;;;;;;18.90;10.70;;;14.30;99.90;;;;;;4440774;32;20209;-68
2021/09/01 06:30:46;;;;;;;19.70;10.37;;;14.30;99.90;;;;;;4442018;32;20182;-67
2021/09/01 06:33:13;;;;;;;18.23;10.20;;;14.30;99.90;;;;;;4442245;32;20210;-67
2021/09/01 06:35:41;;;;;;;18.37;10.77;;;14.40;99.90;;;;;;4440557;32;20218;-67
2021/09/01 06:38:09;;;;;;;17.37;10.57;;;14.50;99.90;;;;;;4441762;32;20204;-68
2021/09/01 06:40:36;;;;;;;17.10;10.73;;;14.40;99.90;;;;;;4440818;32;20378;-67
2021/09/01 06:43:02;;;;;;;18.10;11.03;;;14.40;99.90;;;;;;4442271;32;20422;-69
2021/09/01 06:45:29;;;;;;;19.43;10.63;;;14.40;99.90;;;;;;4440264;32;20150;-69
2021/09/01 06:47:56;;;;;;;15.23;10.13;;;14.40;99.90;;;;;;4431313;32;20151;-69
2021/09/01 06:50:26;;;;;;;18.43;10.67;;;14.50;99.90;;;;;;4426694;32;20427;-68
2021/09/01 06:52:54;;;;;;;17.30;9.87;;;14.60;99.90;;;;;;4425952;32;20127;-68
2021/09/01 06:55:21;;;;;;;18.00;11.00;;;14.60;99.90;;;;;;4425375;32;20166;-70
2021/09/01 06:57:48;;;;;;;16.27;9.93;;;14.70;99.90;;;;;;4424915;32;20135;-69
2021/09/01 07:00:17;;;;;;;17.63;9.27;;;14.70;99.90;;;;;;4424480;32;20139;-69
2021/09/01 07:02:45;;;;;;;16.23;9.43;;;14.80;99.90;;;;;;4424605;32;20411;-69
2021/09/01 07:05:14;;;;;;;20.07;9.50;;;14.80;99.90;;;;;;4424730;32;20134;-69
2021/09/01 07:07:42;;;;;;;17.83;9.47;;;14.90;99.90;;;;;;4426600;32;20131;-71
2021/09/01 07:10:10;;;;;;;15.30;8.57;;;15.00;99.90;;;;;;4424115;32;20156;-69
2021/09/01 07:12:37;;;;;;;13.60;8.67;;;14.90;99.90;;;;;;4426325;32;20130;-73
2021/09/01 07:15:08;;;;;;;14.33;8.07;;;14.90;99.90;;;;;;4425265;32;20344;-70
2021/09/01 07:17:37;;;;;;;15.23;8.40;;;14.80;99.90;;;;;;4432860;32;20209;-68
2021/09/01 07:20:05;;;;;;;13.37;7.77;;;14.90;99.90;;;;;;4441554;32;20156;-69
2021/09/01 07:22:32;;;;;;;15.00;7.97;;;14.90;99.90;;;;;;4441548;32;20195;-68
2021/09/01 07:24:59;;;;;;;14.00;7.07;;;14.90;99.90;;;;;;4440168;32;20127;-69
2021/09/01 07:27:26;;;;;;;13.77;7.53;;;15.00;99.90;;;;;;4441149;32;20151;-68
2021/09/01 07:29:53;;;;;;;13.03;7.27;;;15.10;99.90;;;;;;4441731;32;20135;-69
2021/09/01 07:32:20;;;;;;;14.73;7.83;;;15.20;99.90;;;;;;4441041;32;20123;-69
2021/09/01 07:34:47;;;;;;;11.20;6.83;;;15.30;99.90;;;;;;4439170;32;20142;-68
2021/09/01 07:37:13;;;;;;;13.57;7.03;;;15.30;99.90;;;;;;4440028;32;20151;-69
2021/09/01 07:39:40;;;;;;;12.60;7.17;;;15.40;99.90;;;;;;4441295;32;20161;-69
2021/09/01 07:42:07;;;;;;;12.73;6.87;;;15.50;99.90;;;;;;4440788;32;20192;-69
2021/09/01 07:44:34;;;;;;;9.90;6.20;;;15.60;99.90;;;;;;4438756;32;20460;-70
2021/09/01 07:47:01;;;;;;;12.57;6.67;;;15.70;99.90;;;;;;4434199;32;20194;-68
2021/09/01 07:49:28;;;;;;;11.73;6.60;;;15.70;99.90;;;;;;4429471;32;20143;-70
2021/09/01 07:51:55;;;;;;;11.20;6.60;;;15.80;99.90;;;;;;4425732;32;20179;-70
2021/09/01 07:54:22;;;;;;;11.07;6.30;;;15.80;99.90;;;;;;4425389;32;20131;-69
2021/09/01 07:56:49;;;;;;;10.17;6.10;;;16.00;99.90;;;;;;4425670;32;20207;-70
2021/09/01 07:59:16;;;;;;;8.97;5.83;;;16.10;99.90;;;;;;4423985;32;20197;-69
2021/09/01 08:01:43;;;;;;;12.83;5.97;;;16.20;99.90;;;;;;4425549;32;20131;-69
2021/09/01 08:04:11;;;;;;;8.77;5.63;;;16.30;99.90;;;;;;4425624;32;20192;-69
2021/09/01 08:06:37;;;;;;;8.70;5.87;;;16.30;99.90;;;;;;4423860;32;20147;-69
2021/09/01 08:09:04;;;;;;;9.87;5.60;;;16.40;99.90;;;;;;4425284;32;20184;-69
2021/09/01 08:11:31;;;;;;;12.43;6.13;;;16.60;99.90;;;;;;4425427;32;20170;-69
2021/09/01 08:13:58;;;;;;;9.43;5.80;;;16.80;99.90;;;;;;4425183;32;20172;-68
2021/09/01 08:16:26;;;;;;;9.20;5.23;;;17.00;99.90;;;;;;4425177;32;20182;-68
2021/09/01 08:18:54;;;;;;;9.50;5.37;;;17.20;99.90;;;;;;4427077;32;20147;-68
2021/09/01 08:21:21;;;;;;;8.83;4.83;;;17.60;99.90;;;;;;4426996;32;20498;-71
2021/09/01 08:23:47;;;;;;;7.20;4.37;;;17.90;99.90;;;;;;4422403;32;20154;-70
2021/09/01 08:26:14;;;;;;;10.70;4.87;;;18.40;99.90;;;;;;4423214;32;21264;-69
2021/09/01 08:28:43;;;;;;;9.23;4.80;;;19.00;99.90;;;;;;4425084;32;20205;-70
2021/09/01 08:31:10;;;;;;;11.03;5.10;;;19.30;99.90;;;;;;4424619;32;20162;-70
2021/09/01 08:33:37;;;;;;;8.57;4.70;;;19.30;99.90;;;;;;4423486;32;20134;-70
2021/09/01 08:36:04;;;;;;;7.77;4.70;;;19.40;99.90;;;;;;4423319;32;20124;-69
2021/09/01 08:38:31;;;;;;;8.43;4.43;;;19.30;99.90;;;;;;4424015;32;20162;-67
2021/09/01 08:40:58;;;;;;;8.63;4.20;;;19.20;99.90;;;;;;4419920;32;20476;-68
2021/09/01 08:43:24;;;;;;;8.57;4.40;;;19.00;99.90;;;;;;4417774;32;20193;-68
2021/09/01 08:45:51;;;;;;;7.43;4.20;;;18.50;99.90;;;;;;4422716;32;20247;-68
2021/09/01 08:48:19;;;;;;;7.40;4.33;;;18.30;99.90;;;;;;4423236;32;20144;-67
2021/09/01 08:50:46;;;;;;;8.53;4.10;;;17.90;99.90;;;;;;4424082;32;20124;-66
2021/09/01 08:53:13;;;;;;;6.83;4.10;;;17.70;99.90;;;;;;4431375;32;20192;-68
2021/09/01 08:55:40;;;;;;;7.17;4.47;;;17.70;99.90;;;;;;4422926;32;20159;-67
2021/09/01 08:58:07;;;;;;;13.87;4.60;;;17.70;99.90;;;;;;4423594;32;20131;-66
2021/09/01 09:00:34;;;;;;;8.37;4.10;;;17.60;99.90;;;;;;4423481;32;20132;-67
2021/09/01 09:03:01;;;;;;;7.77;4.43;;;17.40;99.90;;;;;;4424858;32;20174;-68
2021/09/01 09:05:30;;;;;;;8.37;4.43;;;17.20;99.90;;;;;;4424920;32;20192;-67
2021/09/01 09:07:56;;;;;;;10.53;4.63;;;17.00;99.90;;;;;;4423144;32;20442;-68
2021/09/01 09:10:35;;;;;;;8.83;4.73;;;17.00;99.90;;;;;;4426125;32;20123;-68
2021/09/01 09:13:05;;;;;;;6.57;4.30;;;17.00;99.90;;;;;;4427762;32;20205;-69
2021/09/01 09:15:32;;;;;;;8.87;4.87;;;17.20;99.90;;;;;;4427496;32;20427;-67
2021/09/01 09:18:01;;;;;;;7.40;4.60;;;17.30;99.90;;;;;;4428073;32;20123;-68
2021/09/01 09:20:33;;;;;;;9.13;4.37;;;17.50;99.90;;;;;;4427916;32;20452;-68
2021/09/01 09:23:04;;;;;;;10.03;5.13;;;17.60;99.90;;;;;;4427776;32;20199;-71
2021/09/01 09:25:32;;;;;;;6.80;4.60;;;17.90;99.90;;;;;;4431386;32;20135;-68
2021/09/01 09:28:08;;;;;;;7.87;4.40;;;18.50;99.90;;;;;;4438812;32;20184;-68
2021/09/01 09:30:45;;;;;;;8.10;4.43;;;19.30;99.90;;;;;;4442980;32;20490;-68
2021/09/01 09:33:22;;;;;;;8.40;4.57;;;20.10;99.90;;;;;;4443209;32;20150;-69
2021/09/01 09:36:01;;;;;;;8.07;4.30;;;20.30;99.90;;;;;;4442646;32;20198;-66
2021/09/01 09:38:35;;;;;;;6.73;4.10;;;20.00;99.90;;;;;;4443325;32;20171;-67
2021/09/01 09:41:25;;;;;;;7.40;4.30;;;19.70;99.90;;;;;;4442475;32;20190;-67
2021/09/01 09:44:00;;;;;;;9.97;4.27;;;19.50;99.90;;;;;;4443022;32;20446;-68
2021/09/01 09:46:27;;;;;;;7.80;3.90;;;20.00;99.90;;;;;;4441015;32;20166;-68
2021/09/01 09:49:05;;;;;;;8.67;4.37;;;20.80;99.90;;;;;;4441540;32;20149;-69
2021/09/01 09:51:42;;;;;;;9.07;4.20;;;21.60;99.90;;;;;;4442679;32;20218;-68
2021/09/01 09:54:17;;;;;;;6.83;4.10;;;22.10;99.90;;;;;;4443056;32;20375;-69
2021/09/01 09:56:45;;;;;;;6.50;4.27;;;22.00;99.90;;;;;;4431902;32;20218;-68
2021/09/01 09:59:15;;;;;;;7.20;4.20;;;21.70;99.90;;;;;;4429080;32;20230;-69
2021/09/01 10:01:43;;;;;;;6.87;4.40;;;21.30;99.90;;;;;;4434121;32;20226;-69
2021/09/01 10:04:11;;;;;;;6.93;4.57;;;21.30;99.90;;;;;;4442197;32;20149;-68
2021/09/01 10:06:38;;;;;;;8.70;4.50;;;22.00;99.90;;;;;;4442544;32;20155;-69
2021/09/01 10:09:05;;;;;;;8.93;4.30;;;22.60;99.90;;;;;;4442555;32;20172;-68
2021/09/01 10:11:33;;;;;;;7.33;4.50;;;23.00;99.90;;;;;;4440669;32;20127;-68
2021/09/01 10:14:00;;;;;;;9.10;4.57;;;23.30;99.90;;;;;;4440398;32;20189;-69
2021/09/01 10:16:40;;;;;;;6.27;4.43;;;23.10;99.90;;;;;;4441588;32;20529;-68
2021/09/01 10:19:15;;;;;;;9.47;4.47;;;22.90;99.90;;;;;;4442415;32;20183;-68
2021/09/01 10:22:04;;;;;;;6.23;4.23;;;23.00;99.90;;;;;;4440192;32;20158;-69
2021/09/01 10:24:34;;;;;;;5.43;4.03;;;23.30;99.90;;;;;;4442330;32;20406;-70
2021/09/01 10:27:05;;;;;;;6.70;4.00;;;23.20;99.90;;;;;;4442246;32;20135;-66
2021/09/01 10:29:59;;;;;;;8.57;4.20;;;23.40;99.90;;;;;;4442145;32;20334;-67
2021/09/01 10:32:31;;;;;;;6.05;4.05;;;23.80;99.90;;;;;;4441365;32;20127;-67
2021/09/01 10:35:13;;;;;;;6.93;4.12;;;24.10;99.90;;;;;;4436617;32;20173;-66
2021/09/01 10:37:43;;;;;;;5.87;3.77;;;23.40;99.90;;;;;;4427178;32;20545;-67
2021/09/01 10:40:34;;;;;;;5.73;3.37;;;22.70;99.90;;;;;;4424407;32;20203;-67
2021/09/01 10:43:19;;;;;;;5.70;3.30;;;22.90;99.90;;;;;;4426369;32;20154;-66
2021/09/01 10:45:48;;;;;;;7.60;3.50;;;23.00;99.90;;;;;;4425859;32;20230;-67
2021/09/01 10:48:16;;;;;;;6.07;3.30;;;23.50;99.90;;;;;;4424278;32;20196;-67
2021/09/01 10:50:50;;;;;;;5.93;3.30;;;24.10;99.90;;;;;;4426413;32;20485;-67
2021/09/01 10:53:28;;;;;;;4.55;3.12;;;24.60;99.90;;;;;;4426183;32;20440;-67
2021/09/01 10:56:03;;;;;;;4.45;2.90;;;24.50;99.90;;;;;;4426007;32;20540;-67
2021/09/01 10:58:38;;;;;;;5.37;3.30;;;23.10;99.90;;;;;;4426367;32;20123;-67
2021/09/01 11:01:13;;;;;;;6.63;2.70;;;22.70;99.90;;;;;;4426078;32;20184;-67
2021/09/01 11:04:05;;;;;;;4.70;2.73;;;23.40;99.90;;;;;;4424398;32;20185;-67
2021/09/01 11:06:36;;;;;;;5.77;2.80;;;24.20;99.90;;;;;;4426034;32;20180;-68
2021/09/01 11:09:14;;;;;;;5.53;2.92;;;25.00;99.90;;;;;;4424804;32;20127;-67
2021/09/01 11:11:48;;;;;;;4.60;2.75;;;25.10;99.90;;;;;;4424460;32;20127;-67
2021/09/01 11:14:36;;;;;;;5.97;3.00;;;24.80;99.60;;;;;;4424402;32;20139;-68
2021/09/01 11:17:11;;;;;;;4.67;3.00;;;24.40;99.90;;;;;;4431374;32;20238;-68
2021/09/01 11:19:42;;;;;;;4.97;2.78;;;24.70;99.90;;;;;;4440127;32;20461;-68
2021/09/01 11:22:11;;;;;;;4.72;2.72;;;25.20;99.20;;;;;;4439752;32;20123;-67
2021/09/01 11:24:53;;;;;;;7.05;2.92;;;25.40;97.00;;;;;;4439899;32;20488;-67
2021/09/01 11:27:27;;;;;;;4.97;2.53;;;25.20;97.20;;;;;;4440919;32;20138;-67
2021/09/01 11:30:00;;;;;;;4.07;2.50;;;24.80;97.90;;;;;;4440852;32;20422;-67
2021/09/01 11:32:27;;;;;;;4.53;2.75;;;24.30;98.50;;;;;;4439776;32;20402;-67
2021/09/01 11:34:54;;;;;;;4.40;2.67;;;23.70;99.70;;;;;;4439931;32;20135;-66
2021/09/01 11:37:21;;;;;;;3.57;2.40;;;23.30;99.90;;;;;;4439699;32;21532;-68
2021/09/01 11:39:50;;;;;;;4.70;2.70;;;23.10;99.90;;;;;;4441108;32;20226;-67
2021/09/01 11:42:34;;;;;;;6.10;2.40;;;24.50;99.90;;;;;;4439592;32;20130;-68
2021/09/01 11:45:05;;;;;;;4.55;2.35;;;25.70;95.40;;;;;;4439262;32;20165;-67
2021/09/01 11:47:33;;;;;;;6.47;2.30;;;26.70;94.50;;;;;;4433016;32;20162;-67
2021/09/01 11:50:00;;;;;;;4.10;2.60;;;27.70;93.20;;;;;;4424137;32;20152;-68
2021/09/01 11:52:33;;;;;;;3.83;2.40;;;27.30;92.10;;;;;;4426530;32;20400;-68
2021/09/01 11:55:01;;;;;;;6.32;2.45;;;25.50;91.00;;;;;;4425971;32;20127;-67
2021/09/01 11:57:30;;;;;;;3.17;2.15;;;23.60;94.50;;;;;;4426130;32;20213;-66
2021/09/01 11:59:58;;;;;;;3.33;2.15;;;23.40;97.00;;;;;;4424225;32;20136;-67
2021/09/01 12:02:31;;;;;;;3.37;2.15;;;23.20;97.10;;;;;;4423658;32;20135;-66
2021/09/01 12:04:58;;;;;;;4.72;2.20;;;23.30;98.60;;;;;;4423687;32;20149;-67
2021/09/01 12:07:30;;;;;;;3.17;1.90;;;23.30;97.60;;;;;;4423839;32;20165;-68
2021/09/01 12:10:05;;;;;;;4.30;2.10;;;23.90;96.60;;;;;;4424849;32;20127;-68
2021/09/01 12:12:35;;;;;;;3.97;1.83;;;24.90;95.70;;;;;;4425744;32;20131;-67
2021/09/01 12:15:10;;;;;;;2.58;1.77;;;25.30;93.20;;;;;;4423630;32;20131;-67
2021/09/01 12:17:37;;;;;;;5.75;2.00;;;25.10;93.10;;;;;;4424237;32;20172;-67
2021/09/01 12:20:05;;;;;;;4.37;1.80;;;24.80;93.40;;;;;;4424876;32;20192;-68
2021/09/01 12:22:41;;;;;;;4.25;1.60;;;25.70;93.20;;;;;;4431430;32;20134;-67
2021/09/01 12:25:29;;;;;;;5.75;1.48;;;26.50;92.10;;;;;;4440768;32;20126;-66
2021/09/01 12:28:11;;;;;;;2.65;1.20;;;27.00;88.60;;;;;;4438945;32;20222;-66
2021/09/01 12:30:42;;;;;;;2.50;1.27;;;26.60;84.50;;;;;;4440559;32;20199;-67
2021/09/01 12:33:15;;;;;;;5.32;1.45;;;26.20;87.50;;;;;;4440938;32;20172;-67
2021/09/01 12:35:42;;;;;;;2.15;1.30;;;25.70;85.60;;;;;;4440729;32;20180;-67
2021/09/01 12:38:20;;;;;;;2.45;1.40;;;25.60;88.30;;;;;;4440837;32;20377;-68
2021/09/01 12:40:46;;;;;;;2.62;1.60;;;25.70;86.60;;;;;;4440529;32;20134;-66
2021/09/01 12:43:14;;;;;;;2.25;1.20;;;25.60;89.70;;;;;;4440312;32;20162;-65
2021/09/01 12:45:44;;;;;;;2.05;1.00;;;25.10;87.90;;;;;;4439754;32;20188;-66
2021/09/01 12:48:17;;;;;;;2.35;1.42;;;24.50;89.40;;;;;;4440270;32;20176;-67
2021/09/01 12:50:49;;;;;;;2.70;1.62;;;23.70;90.90;;;;;;4439792;32;20127;-67
2021/09/01 12:53:22;;;;;;;3.75;2.03;;;23.50;93.00;;;;;;4439059;32;20274;-67